TimeCDT,TemperatureF,Dew PointF,Humidity,Sea Level PressureIn,VisibilityMPH,Wind Direction,Wind SpeedMPH,Gust SpeedMPH,PrecipitationIn,Events,Conditions,WindDirDegrees,DateUTC
12:15 AM,48.7,44.6,86,29.92,10.0,SSW,4.6,-,N/A,,Scattered Clouds,210,2013-10-07 05:15:00
12:35 AM,50.5,44.8,81,29.92,10.0,SSW,6.9,-,N/A,,Mostly Cloudy,210,2013-10-07 05:35:00
12:55 AM,50.9,45.0,80,29.91,10.0,SSW,5.8,-,N/A,,Overcast,210,2013-10-07 05:55:00
1:15 AM,51.1,44.8,79,29.91,10.0,SSW,5.8,-,N/A,,Mostly Cloudy,210,2013-10-07 06:15:00
1:18 AM,51.8,44.6,76,29.91,10.0,SSW,6.9,-,N/A,,Scattered Clouds,210,2013-10-07 06:18:00
1:35 AM,51.6,44.6,77,29.91,10.0,SW,6.9,-,N/A,,Mostly Cloudy,220,2013-10-07 06:35:00
1:55 AM,52.2,45.1,77,29.91,10.0,SW,6.9,-,N/A,,Overcast,220,2013-10-07 06:55:00
2:15 AM,52.7,44.8,74,29.91,10.0,SW,4.6,-,N/A,,Overcast,220,2013-10-07 07:15:00
2:35 AM,53.8,44.6,71,29.91,10.0,WSW,8.1,-,N/A,,Overcast,240,2013-10-07 07:35:00
2:55 AM,52.9,44.2,72,29.91,10.0,SW,8.1,-,N/A,,Mostly Cloudy,230,2013-10-07 07:55:00
3:15 AM,52.2,44.2,74,29.91,10.0,WSW,6.9,-,N/A,,Scattered Clouds,250,2013-10-07 08:15:00
3:35 AM,51.4,44.2,76,29.91,10.0,WSW,6.9,-,N/A,,Clear,250,2013-10-07 08:35:00
3:55 AM,50.9,44.8,80,29.92,10.0,WSW,8.1,-,N/A,,Scattered Clouds,250,2013-10-07 08:55:00
4:15 AM,52.7,45.3,76,29.93,10.0,WSW,8.1,-,N/A,,Mostly Cloudy,250,2013-10-07 09:15:00
4:35 AM,51.8,45.1,78,29.93,10.0,WSW,5.8,-,N/A,,Scattered Clouds,250,2013-10-07 09:35:00
4:55 AM,50.9,45.5,82,29.94,10.0,West,5.8,-,N/A,,Clear,260,2013-10-07 09:55:00
5:15 AM,49.8,45.5,85,29.94,10.0,West,5.8,-,N/A,,Clear,260,2013-10-07 10:15:00
5:35 AM,49.3,45.5,87,29.95,10.0,West,5.8,-,N/A,,Clear,260,2013-10-07 10:35:00
5:55 AM,49.1,45.7,88,29.96,10.0,West,5.8,-,N/A,,Scattered Clouds,270,2013-10-07 10:55:00
6:15 AM,49.8,45.9,86,29.97,10.0,West,5.8,-,N/A,,Scattered Clouds,270,2013-10-07 11:15:00
6:35 AM,49.8,46.0,87,29.98,10.0,West,5.8,-,N/A,,Scattered Clouds,270,2013-10-07 11:35:00
6:55 AM,49.5,45.9,87,29.99,10.0,West,5.8,-,N/A,,Clear,260,2013-10-07 11:55:00
7:15 AM,49.3,46.4,90,30.00,10.0,West,5.8,-,N/A,,Clear,270,2013-10-07 12:15:00
7:35 AM,50.0,47.1,90,30.00,10.0,West,4.6,-,N/A,,Clear,270,2013-10-07 12:35:00
7:55 AM,51.6,47.3,85,30.01,10.0,West,4.6,-,N/A,,Clear,260,2013-10-07 12:55:00
8:15 AM,52.9,47.5,82,30.02,10.0,West,5.8,-,N/A,,Clear,270,2013-10-07 13:15:00
8:35 AM,53.8,47.7,80,30.04,10.0,West,8.1,-,N/A,,Clear,280,2013-10-07 13:35:00
8:55 AM,54.5,46.8,75,30.05,10.0,WNW,9.2,-,N/A,,Clear,300,2013-10-07 13:55:00
9:15 AM,54.9,46.4,73,30.05,10.0,NW,8.1,-,N/A,,Scattered Clouds,310,2013-10-07 14:15:00
9:35 AM,55.9,46.8,71,30.05,10.0,West,12.7,-,N/A,,Scattered Clouds,280,2013-10-07 14:35:00
9:55 AM,57.4,47.1,69,30.06,10.0,NW,11.5,-,N/A,,Scattered Clouds,310,2013-10-07 14:55:00
10:15 AM,57.9,47.1,67,30.06,10.0,NW,10.4,-,N/A,,Scattered Clouds,310,2013-10-07 15:15:00
10:35 AM,59.0,47.3,65,30.06,10.0,WNW,9.2,-,N/A,,Scattered Clouds,300,2013-10-07 15:35:00
10:55 AM,59.5,46.6,62,30.07,10.0,WNW,9.2,-,N/A,,Scattered Clouds,290,2013-10-07 15:55:00
11:15 AM,60.1,46.9,62,30.07,10.0,NNW,12.7,16.1,N/A,,Scattered Clouds,330,2013-10-07 16:15:00
11:35 AM,61.7,48.6,62,30.07,10.0,NW,6.9,10.4,N/A,,Scattered Clouds,310,2013-10-07 16:35:00
11:55 AM,61.0,46.9,60,30.08,10.0,North,9.2,-,N/A,,Scattered Clouds,350,2013-10-07 16:55:00
12:15 PM,62.2,47.7,59,30.08,10.0,NW,9.2,16.1,N/A,,Mostly Cloudy,320,2013-10-07 17:15:00
12:35 PM,61.9,47.7,60,30.08,10.0,NNW,9.2,-,N/A,,Mostly Cloudy,330,2013-10-07 17:35:00
12:55 PM,61.7,47.7,60,30.08,10.0,WNW,10.4,-,N/A,,Overcast,300,2013-10-07 17:55:00
1:15 PM,63.5,48.6,58,30.08,10.0,NW,9.2,-,N/A,,Overcast,310,2013-10-07 18:15:00
1:35 PM,63.0,48.4,59,30.08,10.0,NW,9.2,-,N/A,,Overcast,310,2013-10-07 18:35:00
1:55 PM,63.0,48.2,59,30.07,10.0,West,6.9,-,N/A,,Overcast,280,2013-10-07 18:55:00
2:15 PM,62.8,47.3,57,30.07,10.0,NW,3.5,-,N/A,,Mostly Cloudy,310,2013-10-07 19:15:00
2:35 PM,64.0,48.4,57,30.07,10.0,NNW,5.8,-,N/A,,Scattered Clouds,330,2013-10-07 19:35:00
2:55 PM,64.6,49.3,58,30.07,10.0,North,6.9,-,N/A,,Scattered Clouds,350,2013-10-07 19:55:00
3:15 PM,65.5,49.3,56,30.07,10.0,WNW,8.1,-,N/A,,Clear,290,2013-10-07 20:15:00
3:35 PM,65.3,48.0,54,30.07,10.0,WNW,5.8,-,N/A,,Clear,300,2013-10-07 20:35:00
3:55 PM,65.7,48.2,53,30.07,10.0,WNW,8.1,-,N/A,,Clear,290,2013-10-07 20:55:00
4:15 PM,66.2,48.6,53,30.07,10.0,NW,4.6,-,N/A,,Clear,310,2013-10-07 21:15:00
4:35 PM,66.0,47.7,52,30.07,10.0,NW,6.9,-,N/A,,Clear,310,2013-10-07 21:35:00
4:55 PM,66.0,47.8,52,30.07,10.0,NNW,5.8,-,N/A,,Clear,340,2013-10-07 21:55:00
5:15 PM,65.7,48.6,54,30.07,10.0,NNW,5.8,-,N/A,,Clear,330,2013-10-07 22:15:00
5:35 PM,64.6,48.2,55,30.07,10.0,NNW,4.6,-,N/A,,Clear,340,2013-10-07 22:35:00
5:55 PM,63.0,49.6,62,30.07,10.0,North,3.5,-,N/A,,Clear,360,2013-10-07 22:55:00
6:15 PM,61.0,50.0,67,30.08,10.0,North,3.5,-,N/A,,Clear,360,2013-10-07 23:15:00
6:35 PM,60.4,48.9,66,30.08,10.0,Calm,Calm,-,N/A,,Clear,0,2013-10-07 23:35:00
6:55 PM,58.8,49.6,72,30.09,7.0,Calm,Calm,-,N/A,,Clear,0,2013-10-07 23:55:00
7:15 PM,56.8,50.2,78,30.10,10.0,Calm,Calm,-,N/A,,Clear,0,2013-10-08 00:15:00
7:35 PM,54.7,50.5,86,30.10,10.0,Calm,Calm,-,N/A,,Clear,0,2013-10-08 00:35:00
7:55 PM,54.5,50.4,86,30.11,10.0,Calm,Calm,-,N/A,,Clear,0,2013-10-08 00:55:00
8:15 PM,54.9,51.1,87,30.12,10.0,Calm,Calm,-,N/A,,Clear,0,2013-10-08 01:15:00
8:35 PM,54.0,51.4,91,30.13,10.0,Calm,Calm,-,N/A,,Clear,0,2013-10-08 01:35:00
8:55 PM,53.6,51.4,92,30.13,10.0,Calm,Calm,-,N/A,,Clear,0,2013-10-08 01:55:00
9:15 PM,51.8,50.0,94,30.14,10.0,Calm,Calm,-,N/A,,Clear,0,2013-10-08 02:15:00
9:35 PM,51.6,50.0,94,30.14,10.0,Calm,Calm,-,N/A,,Clear,0,2013-10-08 02:35:00
9:55 PM,50.5,48.9,94,30.15,10.0,SE,4.6,-,N/A,,Clear,140,2013-10-08 02:55:00
10:15 PM,50.5,48.7,94,30.15,10.0,Calm,Calm,-,N/A,,Clear,0,2013-10-08 03:15:00
10:35 PM,50.5,48.7,94,30.15,10.0,Calm,Calm,-,N/A,,Clear,0,2013-10-08 03:35:00
10:55 PM,50.4,48.6,94,30.16,10.0,Calm,Calm,-,N/A,,Clear,0,2013-10-08 03:55:00
11:15 PM,50.9,49.1,94,30.16,10.0,Calm,Calm,-,N/A,,Clear,0,2013-10-08 04:15:00
11:35 PM,50.7,49.1,94,30.16,10.0,Calm,Calm,-,N/A,,Clear,0,2013-10-08 04:35:00
11:55 PM,50.2,48.6,94,30.16,10.0,Calm,Calm,-,N/A,,Clear,0,2013-10-08 04:55:00